sensor_id;sensor_type;location;lat;lon;timestamp;P1;durP1;ratioP1;P2;durP2;ratioP2
61525;SDS011;47394;41.366;-8.738;2022-09-27T00:00:48;17.85;;;2.97;;
61525;SDS011;47394;41.366;-8.738;2022-09-27T00:02:49;18.10;;;3.58;;
61525;SDS011;47394;41.366;-8.738;2022-09-27T00:04:50;15.30;;;3.30;;
61525;SDS011;47394;41.366;-8.738;2022-09-27T00:06:52;16.42;;;3.03;;
61525;SDS011;47394;41.366;-8.738;2022-09-27T00:08:53;16.85;;;3.00;;
61525;SDS011;47394;41.366;-8.738;2022-09-27T00:10:58;12.25;;;2.88;;
61525;SDS011;47394;41.366;-8.738;2022-09-27T00:13:00;19.23;;;2.88;;
61525;SDS011;47394;41.366;-8.738;2022-09-27T00:15:01;28.55;;;3.15;;
61525;SDS011;47394;41.366;-8.738;2022-09-27T00:17:03;12.80;;;2.95;;
61525;SDS011;47394;41.366;-8.738;2022-09-27T00:19:05;25.55;;;2.78;;
61525;SDS011;47394;41.366;-8.738;2022-09-27T00:21:11;15.68;;;3.15;;
61525;SDS011;47394;41.366;-8.738;2022-09-27T00:23:13;8.10;;;2.80;;
61525;SDS011;47394;41.366;-8.738;2022-09-27T00:25:14;11.55;;;2.72;;
61525;SDS011;47394;41.366;-8.738;2022-09-27T00:27:16;12.95;;;2.83;;
61525;SDS011;47394;41.366;-8.738;2022-09-27T00:29:17;9.40;;;2.55;;
61525;SDS011;47394;41.366;-8.738;2022-09-27T00:31:23;16.92;;;2.70;;
61525;SDS011;47394;41.366;-8.738;2022-09-27T00:33:26;14.88;;;2.80;;
61525;SDS011;47394;41.366;-8.738;2022-09-27T00:35:27;13.68;;;2.55;;
61525;SDS011;47394;41.366;-8.738;2022-09-27T00:37:29;10.02;;;2.75;;
61525;SDS011;47394;41.366;-8.738;2022-09-27T00:39:29;9.65;;;2.10;;
61525;SDS011;47394;41.366;-8.738;2022-09-27T00:41:31;7.35;;;2.33;;
61525;SDS011;47394;41.366;-8.738;2022-09-27T00:43:47;15.27;;;2.30;;
61525;SDS011;47394;41.366;-8.738;2022-09-27T00:46:00;7.93;;;2.50;;
61525;SDS011;47394;41.366;-8.738;2022-09-27T00:48:03;6.28;;;2.28;;
61525;SDS011;47394;41.366;-8.738;2022-09-27T00:50:27;7.50;;;2.43;;
61525;SDS011;47394;41.366;-8.738;2022-09-27T00:52:35;10.90;;;2.03;;
61525;SDS011;47394;41.366;-8.738;2022-09-27T00:54:41;11.45;;;2.40;;
61525;SDS011;47394;41.366;-8.738;2022-09-27T00:56:45;6.97;;;2.33;;
61525;SDS011;47394;41.366;-8.738;2022-09-27T00:59:10;7.20;;;2.13;;
61525;SDS011;47394;41.366;-8.738;2022-09-27T01:01:16;12.35;;;2.38;;
61525;SDS011;47394;41.366;-8.738;2022-09-27T01:03:29;6.10;;;2.17;;
61525;SDS011;47394;41.366;-8.738;2022-09-27T01:05:52;6.10;;;1.80;;
61525;SDS011;47394;41.366;-8.738;2022-09-27T01:07:54;7.65;;;2.13;;
61525;SDS011;47394;41.366;-8.738;2022-09-27T01:10:00;5.57;;;2.05;;
61525;SDS011;47394;41.366;-8.738;2022-09-27T01:19:11;7.47;;;2.58;;
61525;SDS011;47394;41.366;-8.738;2022-09-27T01:30:39;10.48;;;2.30;;
61525;SDS011;47394;41.366;-8.738;2022-09-27T01:33:00;10.02;;;2.20;;
61525;SDS011;47394;41.366;-8.738;2022-09-27T01:35:08;7.53;;;2.50;;
61525;SDS011;47394;41.366;-8.738;2022-09-27T01:42:19;17.73;;;3.05;;
61525;SDS011;47394;41.366;-8.738;2022-09-27T01:46:44;21.92;;;4.20;;
61525;SDS011;47394;41.366;-8.738;2022-09-27T01:49:16;16.52;;;4.38;;
61525;SDS011;47394;41.366;-8.738;2022-09-27T01:52:22;15.73;;;4.07;;
61525;SDS011;47394;41.366;-8.738;2022-09-27T01:53:58;21.15;;;3.38;;
61525;SDS011;47394;41.366;-8.738;2022-09-27T01:56:22;11.05;;;2.90;;
61525;SDS011;47394;41.366;-8.738;2022-09-27T01:58:40;14.52;;;3.00;;
61525;SDS011;47394;41.366;-8.738;2022-09-27T02:00:48;13.38;;;3.17;;
61525;SDS011;47394;41.366;-8.738;2022-09-27T02:05:56;18.70;;;3.63;;
61525;SDS011;47394;41.366;-8.738;2022-09-27T02:10:47;21.70;;;3.60;;
61525;SDS011;47394;41.366;-8.738;2022-09-27T02:13:09;9.93;;;2.92;;
61525;SDS011;47394;41.366;-8.738;2022-09-27T02:15:24;22.17;;;3.17;;
61525;SDS011;47394;41.366;-8.738;2022-09-27T02:17:51;13.57;;;3.17;;
61525;SDS011;47394;41.366;-8.738;2022-09-27T02:22:31;18.25;;;3.72;;
61525;SDS011;47394;41.366;-8.738;2022-09-27T02:24:40;12.77;;;3.40;;
61525;SDS011;47394;41.366;-8.738;2022-09-27T02:26:47;10.68;;;3.08;;
61525;SDS011;47394;41.366;-8.738;2022-09-27T02:28:57;14.23;;;3.45;;
61525;SDS011;47394;41.366;-8.738;2022-09-27T02:31:10;10.10;;;2.78;;
61525;SDS011;47394;41.366;-8.738;2022-09-27T02:33:11;15.10;;;3.13;;
61525;SDS011;47394;41.366;-8.738;2022-09-27T02:35:14;21.42;;;3.83;;
61525;SDS011;47394;41.366;-8.738;2022-09-27T02:37:19;11.88;;;3.00;;
61525;SDS011;47394;41.366;-8.738;2022-09-27T02:39:21;9.85;;;2.95;;
61525;SDS011;47394;41.366;-8.738;2022-09-27T02:41:31;18.35;;;3.78;;
61525;SDS011;47394;41.366;-8.738;2022-09-27T02:43:33;13.38;;;3.10;;
61525;SDS011;47394;41.366;-8.738;2022-09-27T03:00:43;14.48;;;3.72;;
61525;SDS011;47394;41.366;-8.738;2022-09-27T03:05:26;18.85;;;3.88;;
61525;SDS011;47394;41.366;-8.738;2022-09-27T03:07:31;17.15;;;4.00;;
61525;SDS011;47394;41.366;-8.738;2022-09-27T03:10:06;13.65;;;3.33;;
61525;SDS011;47394;41.366;-8.738;2022-09-27T03:12:00;14.13;;;3.75;;
61525;SDS011;47394;41.366;-8.738;2022-09-27T03:14:01;13.07;;;3.67;;
61525;SDS011;47394;41.366;-8.738;2022-09-27T03:16:02;10.00;;;3.22;;
61525;SDS011;47394;41.366;-8.738;2022-09-27T03:18:21;20.60;;;3.95;;
61525;SDS011;47394;41.366;-8.738;2022-09-27T03:20:52;23.05;;;3.50;;
61525;SDS011;47394;41.366;-8.738;2022-09-27T03:22:55;18.58;;;3.83;;
61525;SDS011;47394;41.366;-8.738;2022-09-27T03:24:56;13.43;;;3.50;;
61525;SDS011;47394;41.366;-8.738;2022-09-27T03:26:57;8.38;;;2.88;;
61525;SDS011;47394;41.366;-8.738;2022-09-27T03:28:58;7.60;;;2.00;;
61525;SDS011;47394;41.366;-8.738;2022-09-27T03:30:59;5.22;;;1.98;;
61525;SDS011;47394;41.366;-8.738;2022-09-27T03:33:19;7.60;;;2.00;;
61525;SDS011;47394;41.366;-8.738;2022-09-27T03:35:31;4.93;;;1.58;;
61525;SDS011;47394;41.366;-8.738;2022-09-27T03:37:31;5.72;;;1.83;;
61525;SDS011;47394;41.366;-8.738;2022-09-27T03:39:33;6.60;;;1.48;;
61525;SDS011;47394;41.366;-8.738;2022-09-27T03:41:34;6.65;;;1.48;;
61525;SDS011;47394;41.366;-8.738;2022-09-27T03:43:35;2.70;;;1.30;;
61525;SDS011;47394;41.366;-8.738;2022-09-27T03:45:37;6.63;;;1.92;;
61525;SDS011;47394;41.366;-8.738;2022-09-27T03:47:42;7.63;;;1.65;;
61525;SDS011;47394;41.366;-8.738;2022-09-27T03:49:43;2.67;;;1.50;;
61525;SDS011;47394;41.366;-8.738;2022-09-27T03:51:44;5.90;;;1.70;;
61525;SDS011;47394;41.366;-8.738;2022-09-27T03:53:45;7.43;;;1.55;;
61525;SDS011;47394;41.366;-8.738;2022-09-27T03:55:46;7.05;;;1.70;;
61525;SDS011;47394;41.366;-8.738;2022-09-27T03:57:47;3.53;;;1.45;;
61525;SDS011;47394;41.366;-8.738;2022-09-27T03:59:49;8.13;;;1.73;;
61525;SDS011;47394;41.366;-8.738;2022-09-27T04:02:10;4.10;;;1.60;;
61525;SDS011;47394;41.366;-8.738;2022-09-27T04:04:37;2.85;;;1.20;;
61525;SDS011;47394;41.366;-8.738;2022-09-27T04:06:38;2.85;;;1.30;;
61525;SDS011;47394;41.366;-8.738;2022-09-27T04:08:39;7.30;;;1.60;;
61525;SDS011;47394;41.366;-8.738;2022-09-27T04:10:41;2.53;;;1.13;;
61525;SDS011;47394;41.366;-8.738;2022-09-27T04:12:42;2.17;;;1.17;;
61525;SDS011;47394;41.366;-8.738;2022-09-27T04:14:44;4.00;;;1.30;;
61525;SDS011;47394;41.366;-8.738;2022-09-27T04:17:11;3.55;;;1.38;;
61525;SDS011;47394;41.366;-8.738;2022-09-27T04:19:43;5.63;;;1.13;;
61525;SDS011;47394;41.366;-8.738;2022-09-27T04:21:45;6.68;;;1.02;;
61525;SDS011;47394;41.366;-8.738;2022-09-27T04:23:47;4.93;;;1.30;;
61525;SDS011;47394;41.366;-8.738;2022-09-27T04:25:50;7.43;;;1.35;;
61525;SDS011;47394;41.366;-8.738;2022-09-27T04:28:14;6.32;;;1.65;;
61525;SDS011;47394;41.366;-8.738;2022-09-27T04:30:15;9.15;;;1.88;;
61525;SDS011;47394;41.366;-8.738;2022-09-27T04:32:45;5.82;;;1.02;;
61525;SDS011;47394;41.366;-8.738;2022-09-27T04:35:13;3.83;;;1.17;;
61525;SDS011;47394;41.366;-8.738;2022-09-27T04:37:32;5.60;;;1.20;;
61525;SDS011;47394;41.366;-8.738;2022-09-27T04:39:36;2.65;;;1.30;;
61525;SDS011;47394;41.366;-8.738;2022-09-27T04:41:39;4.13;;;1.63;;
61525;SDS011;47394;41.366;-8.738;2022-09-27T04:43:40;5.80;;;1.45;;
61525;SDS011;47394;41.366;-8.738;2022-09-27T04:45:44;5.80;;;2.00;;
61525;SDS011;47394;41.366;-8.738;2022-09-27T04:47:46;6.93;;;1.70;;
61525;SDS011;47394;41.366;-8.738;2022-09-27T04:49:48;5.07;;;1.50;;
61525;SDS011;47394;41.366;-8.738;2022-09-27T04:51:49;5.80;;;1.48;;
61525;SDS011;47394;41.366;-8.738;2022-09-27T04:53:50;4.18;;;1.40;;
61525;SDS011;47394;41.366;-8.738;2022-09-27T04:55:52;2.85;;;1.52;;
61525;SDS011;47394;41.366;-8.738;2022-09-27T04:57:54;5.35;;;1.30;;
61525;SDS011;47394;41.366;-8.738;2022-09-27T04:59:55;3.35;;;1.20;;
61525;SDS011;47394;41.366;-8.738;2022-09-27T05:01:58;3.33;;;1.33;;
61525;SDS011;47394;41.366;-8.738;2022-09-27T05:04:14;6.00;;;1.33;;
61525;SDS011;47394;41.366;-8.738;2022-09-27T05:06:20;3.72;;;1.27;;
61525;SDS011;47394;41.366;-8.738;2022-09-27T05:08:21;4.55;;;1.60;;
61525;SDS011;47394;41.366;-8.738;2022-09-27T05:10:40;3.03;;;1.38;;
61525;SDS011;47394;41.366;-8.738;2022-09-27T05:12:41;3.05;;;1.25;;
61525;SDS011;47394;41.366;-8.738;2022-09-27T05:14:45;3.83;;;1.27;;
61525;SDS011;47394;41.366;-8.738;2022-09-27T05:16:49;5.15;;;1.20;;
61525;SDS011;47394;41.366;-8.738;2022-09-27T05:19:08;3.83;;;1.45;;
61525;SDS011;47394;41.366;-8.738;2022-09-27T05:21:30;3.63;;;1.25;;
61525;SDS011;47394;41.366;-8.738;2022-09-27T05:23:31;5.90;;;1.23;;
61525;SDS011;47394;41.366;-8.738;2022-09-27T05:25:32;2.72;;;1.10;;
61525;SDS011;47394;41.366;-8.738;2022-09-27T05:27:34;4.72;;;1.13;;
61525;SDS011;47394;41.366;-8.738;2022-09-27T05:29:35;2.85;;;1.20;;
61525;SDS011;47394;41.366;-8.738;2022-09-27T05:31:44;3.50;;;1.40;;
61525;SDS011;47394;41.366;-8.738;2022-09-27T05:33:45;2.80;;;1.27;;
61525;SDS011;47394;41.366;-8.738;2022-09-27T05:38:09;8.25;;;1.80;;
61525;SDS011;47394;41.366;-8.738;2022-09-27T05:40:12;3.63;;;1.77;;
61525;SDS011;47394;41.366;-8.738;2022-09-27T05:42:12;5.45;;;1.85;;
61525;SDS011;47394;41.366;-8.738;2022-09-27T05:44:15;4.90;;;1.80;;
61525;SDS011;47394;41.366;-8.738;2022-09-27T05:46:25;2.67;;;1.20;;
61525;SDS011;47394;41.366;-8.738;2022-09-27T05:48:26;4.00;;;1.73;;
61525;SDS011;47394;41.366;-8.738;2022-09-27T05:50:40;6.72;;;1.90;;
61525;SDS011;47394;41.366;-8.738;2022-09-27T05:52:41;3.15;;;1.35;;
61525;SDS011;47394;41.366;-8.738;2022-09-27T05:54:42;4.30;;;1.90;;
61525;SDS011;47394;41.366;-8.738;2022-09-27T05:56:43;5.10;;;1.67;;
61525;SDS011;47394;41.366;-8.738;2022-09-27T05:58:56;3.60;;;1.77;;
61525;SDS011;47394;41.366;-8.738;2022-09-27T06:01:00;5.50;;;1.65;;
61525;SDS011;47394;41.366;-8.738;2022-09-27T06:03:21;4.80;;;1.75;;
61525;SDS011;47394;41.366;-8.738;2022-09-27T06:05:40;4.47;;;1.90;;
61525;SDS011;47394;41.366;-8.738;2022-09-27T06:08:09;7.63;;;2.20;;
61525;SDS011;47394;41.366;-8.738;2022-09-27T06:10:17;6.68;;;1.98;;
61525;SDS011;47394;41.366;-8.738;2022-09-27T06:12:18;9.32;;;2.80;;
61525;SDS011;47394;41.366;-8.738;2022-09-27T06:14:20;5.30;;;2.45;;
61525;SDS011;47394;41.366;-8.738;2022-09-27T06:16:47;9.93;;;2.50;;
61525;SDS011;47394;41.366;-8.738;2022-09-27T06:18:48;13.07;;;2.90;;
61525;SDS011;47394;41.366;-8.738;2022-09-27T06:20:50;5.90;;;2.42;;
61525;SDS011;47394;41.366;-8.738;2022-09-27T06:22:51;9.20;;;2.60;;
61525;SDS011;47394;41.366;-8.738;2022-09-27T06:24:53;6.60;;;2.93;;
61525;SDS011;47394;41.366;-8.738;2022-09-27T06:26:57;7.68;;;2.47;;
61525;SDS011;47394;41.366;-8.738;2022-09-27T06:29:11;7.10;;;2.83;;
61525;SDS011;47394;41.366;-8.738;2022-09-27T06:31:18;7.68;;;2.70;;
61525;SDS011;47394;41.366;-8.738;2022-09-27T06:33:36;11.23;;;2.28;;
61525;SDS011;47394;41.366;-8.738;2022-09-27T06:35:38;7.75;;;2.70;;
61525;SDS011;47394;41.366;-8.738;2022-09-27T06:37:40;17.05;;;2.67;;
61525;SDS011;47394;41.366;-8.738;2022-09-27T06:39:41;13.65;;;2.75;;
61525;SDS011;47394;41.366;-8.738;2022-09-27T06:42:20;8.68;;;3.13;;
61525;SDS011;47394;41.366;-8.738;2022-09-27T06:44:47;4.78;;;2.33;;
61525;SDS011;47394;41.366;-8.738;2022-09-27T06:47:07;8.88;;;2.63;;
61525;SDS011;47394;41.366;-8.738;2022-09-27T06:49:22;6.85;;;2.40;;
61525;SDS011;47394;41.366;-8.738;2022-09-27T06:51:24;5.90;;;2.70;;
61525;SDS011;47394;41.366;-8.738;2022-09-27T06:53:26;9.73;;;3.13;;
61525;SDS011;47394;41.366;-8.738;2022-09-27T06:55:28;7.25;;;2.83;;
61525;SDS011;47394;41.366;-8.738;2022-09-27T06:57:29;6.07;;;3.05;;
61525;SDS011;47394;41.366;-8.738;2022-09-27T06:59:49;9.20;;;2.50;;
61525;SDS011;47394;41.366;-8.738;2022-09-27T07:02:27;9.38;;;2.30;;
61525;SDS011;47394;41.366;-8.738;2022-09-27T07:05:03;8.18;;;2.70;;
61525;SDS011;47394;41.366;-8.738;2022-09-27T07:07:38;9.35;;;2.85;;
61525;SDS011;47394;41.366;-8.738;2022-09-27T07:09:39;9.85;;;2.83;;
61525;SDS011;47394;41.366;-8.738;2022-09-27T07:11:40;12.30;;;3.20;;
61525;SDS011;47394;41.366;-8.738;2022-09-27T07:13:44;14.05;;;3.22;;
61525;SDS011;47394;41.366;-8.738;2022-09-27T07:15:45;12.32;;;2.83;;
61525;SDS011;47394;41.366;-8.738;2022-09-27T07:17:55;14.77;;;3.50;;
61525;SDS011;47394;41.366;-8.738;2022-09-27T07:22:03;8.95;;;3.63;;
61525;SDS011;47394;41.366;-8.738;2022-09-27T07:24:04;16.27;;;4.25;;
61525;SDS011;47394;41.366;-8.738;2022-09-27T07:26:06;19.37;;;4.27;;
61525;SDS011;47394;41.366;-8.738;2022-09-27T07:28:14;13.60;;;4.75;;
61525;SDS011;47394;41.366;-8.738;2022-09-27T07:30:16;12.23;;;5.05;;
61525;SDS011;47394;41.366;-8.738;2022-09-27T07:32:17;20.02;;;4.97;;
61525;SDS011;47394;41.366;-8.738;2022-09-27T07:34:17;11.73;;;4.72;;
61525;SDS011;47394;41.366;-8.738;2022-09-27T07:36:19;20.50;;;8.02;;
61525;SDS011;47394;41.366;-8.738;2022-09-27T07:38:21;36.67;;;15.40;;
61525;SDS011;47394;41.366;-8.738;2022-09-27T07:40:22;34.05;;;12.30;;
61525;SDS011;47394;41.366;-8.738;2022-09-27T07:42:23;30.23;;;14.68;;
61525;SDS011;47394;41.366;-8.738;2022-09-27T07:44:26;19.77;;;5.05;;
61525;SDS011;47394;41.366;-8.738;2022-09-27T07:46:47;26.85;;;4.85;;
61525;SDS011;47394;41.366;-8.738;2022-09-27T07:48:55;27.73;;;6.07;;
61525;SDS011;47394;41.366;-8.738;2022-09-27T07:51:14;32.05;;;6.07;;
61525;SDS011;47394;41.366;-8.738;2022-09-27T07:53:18;29.70;;;5.97;;
61525;SDS011;47394;41.366;-8.738;2022-09-27T07:55:31;31.75;;;6.30;;
61525;SDS011;47394;41.366;-8.738;2022-09-27T07:58:00;31.05;;;6.28;;
61525;SDS011;47394;41.366;-8.738;2022-09-27T08:00:05;28.35;;;6.55;;
61525;SDS011;47394;41.366;-8.738;2022-09-27T08:02:14;25.83;;;5.63;;
61525;SDS011;47394;41.366;-8.738;2022-09-27T08:04:17;36.25;;;7.18;;
61525;SDS011;47394;41.366;-8.738;2022-09-27T08:06:18;29.88;;;6.25;;
61525;SDS011;47394;41.366;-8.738;2022-09-27T08:08:19;30.75;;;6.53;;
61525;SDS011;47394;41.366;-8.738;2022-09-27T08:12:26;24.90;;;6.20;;
61525;SDS011;47394;41.366;-8.738;2022-09-27T08:14:27;26.40;;;6.10;;
61525;SDS011;47394;41.366;-8.738;2022-09-27T08:16:29;26.02;;;6.00;;
61525;SDS011;47394;41.366;-8.738;2022-09-27T08:21:11;28.98;;;7.50;;
61525;SDS011;47394;41.366;-8.738;2022-09-27T08:23:23;36.63;;;7.25;;
61525;SDS011;47394;41.366;-8.738;2022-09-27T08:25:37;41.13;;;7.38;;
61525;SDS011;47394;41.366;-8.738;2022-09-27T08:28:00;31.67;;;6.60;;
61525;SDS011;47394;41.366;-8.738;2022-09-27T08:30:19;32.47;;;7.85;;
61525;SDS011;47394;41.366;-8.738;2022-09-27T08:32:20;26.88;;;6.85;;
61525;SDS011;47394;41.366;-8.738;2022-09-27T08:34:22;26.45;;;7.03;;
61525;SDS011;47394;41.366;-8.738;2022-09-27T08:36:23;27.08;;;7.13;;
61525;SDS011;47394;41.366;-8.738;2022-09-27T08:38:24;28.33;;;6.82;;
61525;SDS011;47394;41.366;-8.738;2022-09-27T08:43:03;26.80;;;6.90;;
61525;SDS011;47394;41.366;-8.738;2022-09-27T08:45:16;17.67;;;5.20;;
61525;SDS011;47394;41.366;-8.738;2022-09-27T08:49:35;23.85;;;4.72;;
61525;SDS011;47394;41.366;-8.738;2022-09-27T08:51:37;20.25;;;4.88;;
61525;SDS011;47394;41.366;-8.738;2022-09-27T08:55:47;18.35;;;4.45;;
61525;SDS011;47394;41.366;-8.738;2022-09-27T08:57:56;16.27;;;3.80;;
61525;SDS011;47394;41.366;-8.738;2022-09-27T09:00:02;12.77;;;3.88;;
61525;SDS011;47394;41.366;-8.738;2022-09-27T09:02:15;21.98;;;4.05;;
61525;SDS011;47394;41.366;-8.738;2022-09-27T09:04:25;29.08;;;6.43;;
61525;SDS011;47394;41.366;-8.738;2022-09-27T09:06:50;17.33;;;3.50;;
61525;SDS011;47394;41.366;-8.738;2022-09-27T09:26:16;26.63;;;4.50;;
61525;SDS011;47394;41.366;-8.738;2022-09-27T09:31:05;15.85;;;3.83;;
61525;SDS011;47394;41.366;-8.738;2022-09-27T09:33:28;27.15;;;4.13;;
61525;SDS011;47394;41.366;-8.738;2022-09-27T09:35:35;19.00;;;3.83;;
61525;SDS011;47394;41.366;-8.738;2022-09-27T09:37:39;19.80;;;3.50;;
61525;SDS011;47394;41.366;-8.738;2022-09-27T09:39:48;20.08;;;4.63;;
61525;SDS011;47394;41.366;-8.738;2022-09-27T09:42:13;34.55;;;6.40;;
61525;SDS011;47394;41.366;-8.738;2022-09-27T09:44:25;22.00;;;5.88;;
61525;SDS011;47394;41.366;-8.738;2022-09-27T09:48:52;12.73;;;3.75;;
61525;SDS011;47394;41.366;-8.738;2022-09-27T09:51:00;22.70;;;4.32;;
61525;SDS011;47394;41.366;-8.738;2022-09-27T09:53:24;19.20;;;3.47;;
61525;SDS011;47394;41.366;-8.738;2022-09-27T09:55:36;12.55;;;3.30;;
61525;SDS011;47394;41.366;-8.738;2022-09-27T09:57:48;19.77;;;3.45;;
61525;SDS011;47394;41.366;-8.738;2022-09-27T10:00:04;11.43;;;3.75;;
61525;SDS011;47394;41.366;-8.738;2022-09-27T10:02:18;15.50;;;3.50;;
61525;SDS011;47394;41.366;-8.738;2022-09-27T10:04:32;14.55;;;3.97;;
61525;SDS011;47394;41.366;-8.738;2022-09-27T10:08:36;13.65;;;4.38;;
61525;SDS011;47394;41.366;-8.738;2022-09-27T10:10:59;20.50;;;4.55;;
61525;SDS011;47394;41.366;-8.738;2022-09-27T10:13:03;19.35;;;4.72;;
61525;SDS011;47394;41.366;-8.738;2022-09-27T10:15:27;22.30;;;4.75;;
61525;SDS011;47394;41.366;-8.738;2022-09-27T10:17:34;19.42;;;5.68;;
61525;SDS011;47394;41.366;-8.738;2022-09-27T10:19:39;15.73;;;4.80;;
61525;SDS011;47394;41.366;-8.738;2022-09-27T10:21:42;20.92;;;6.40;;
61525;SDS011;47394;41.366;-8.738;2022-09-27T10:24:06;23.95;;;7.38;;
61525;SDS011;47394;41.366;-8.738;2022-09-27T10:26:27;22.38;;;9.05;;
61525;SDS011;47394;41.366;-8.738;2022-09-27T10:28:29;32.65;;;10.02;;
61525;SDS011;47394;41.366;-8.738;2022-09-27T10:30:34;27.17;;;10.45;;
61525;SDS011;47394;41.366;-8.738;2022-09-27T10:32:40;23.10;;;8.70;;
61525;SDS011;47394;41.366;-8.738;2022-09-27T10:37:32;28.45;;;6.65;;
61525;SDS011;47394;41.366;-8.738;2022-09-27T10:39:44;24.10;;;6.45;;
61525;SDS011;47394;41.366;-8.738;2022-09-27T10:41:48;26.02;;;6.28;;
61525;SDS011;47394;41.366;-8.738;2022-09-27T10:46:31;22.92;;;4.80;;
61525;SDS011;47394;41.366;-8.738;2022-09-27T10:49:19;21.13;;;4.80;;
61525;SDS011;47394;41.366;-8.738;2022-09-27T10:51:29;22.75;;;5.47;;
61525;SDS011;47394;41.366;-8.738;2022-09-27T10:53:35;23.48;;;4.93;;
61525;SDS011;47394;41.366;-8.738;2022-09-27T10:55:47;19.42;;;4.80;;
61525;SDS011;47394;41.366;-8.738;2022-09-27T10:57:51;18.60;;;4.55;;
61525;SDS011;47394;41.366;-8.738;2022-09-27T10:59:55;25.10;;;5.65;;
61525;SDS011;47394;41.366;-8.738;2022-09-27T11:01:58;18.40;;;5.07;;
61525;SDS011;47394;41.366;-8.738;2022-09-27T11:06:27;30.10;;;5.70;;
61525;SDS011;47394;41.366;-8.738;2022-09-27T11:08:32;14.57;;;4.38;;
61525;SDS011;47394;41.366;-8.738;2022-09-27T11:10:39;18.13;;;4.63;;
61525;SDS011;47394;41.366;-8.738;2022-09-27T11:12:41;22.08;;;4.28;;
61525;SDS011;47394;41.366;-8.738;2022-09-27T11:14:42;20.02;;;5.10;;
61525;SDS011;47394;41.366;-8.738;2022-09-27T11:23:48;19.80;;;5.07;;
61525;SDS011;47394;41.366;-8.738;2022-09-27T11:35:50;16.92;;;4.20;;
61525;SDS011;47394;41.366;-8.738;2022-09-27T11:42:53;24.85;;;5.25;;
61525;SDS011;47394;41.366;-8.738;2022-09-27T11:47:45;25.05;;;5.18;;
61525;SDS011;47394;41.366;-8.738;2022-09-27T11:53:05;26.10;;;5.05;;
61525;SDS011;47394;41.366;-8.738;2022-09-27T11:55:40;20.70;;;4.65;;
61525;SDS011;47394;41.366;-8.738;2022-09-27T11:57:55;15.70;;;4.05;;
61525;SDS011;47394;41.366;-8.738;2022-09-27T12:04:55;18.00;;;4.32;;
61525;SDS011;47394;41.366;-8.738;2022-09-27T12:07:04;22.55;;;4.25;;
61525;SDS011;47394;41.366;-8.738;2022-09-27T12:11:17;22.70;;;4.55;;
61525;SDS011;47394;41.366;-8.738;2022-09-27T12:13:32;22.23;;;4.35;;
61525;SDS011;47394;41.366;-8.738;2022-09-27T12:15:38;16.25;;;3.35;;
61525;SDS011;47394;41.366;-8.738;2022-09-27T12:17:44;17.20;;;3.45;;
61525;SDS011;47394;41.366;-8.738;2022-09-27T12:19:55;21.48;;;3.75;;
61525;SDS011;47394;41.366;-8.738;2022-09-27T12:22:16;20.08;;;3.75;;
61525;SDS011;47394;41.366;-8.738;2022-09-27T12:24:25;21.95;;;4.07;;
61525;SDS011;47394;41.366;-8.738;2022-09-27T12:26:51;14.55;;;3.42;;
61525;SDS011;47394;41.366;-8.738;2022-09-27T12:28:56;20.10;;;4.25;;
61525;SDS011;47394;41.366;-8.738;2022-09-27T12:31:22;15.13;;;3.30;;
61525;SDS011;47394;41.366;-8.738;2022-09-27T12:36:26;23.13;;;3.47;;
61525;SDS011;47394;41.366;-8.738;2022-09-27T12:40:39;26.20;;;4.40;;
61525;SDS011;47394;41.366;-8.738;2022-09-27T12:42:49;16.45;;;3.67;;
61525;SDS011;47394;41.366;-8.738;2022-09-27T12:51:34;17.40;;;3.92;;
61525;SDS011;47394;41.366;-8.738;2022-09-27T12:58:15;19.30;;;3.80;;
61525;SDS011;47394;41.366;-8.738;2022-09-27T13:00:52;19.88;;;4.30;;
61525;SDS011;47394;41.366;-8.738;2022-09-27T13:08:33;33.92;;;3.92;;
61525;SDS011;47394;41.366;-8.738;2022-09-27T13:13:33;22.20;;;3.47;;
61525;SDS011;47394;41.366;-8.738;2022-09-27T13:15:38;27.33;;;4.63;;
61525;SDS011;47394;41.366;-8.738;2022-09-27T13:19:49;19.95;;;3.85;;
61525;SDS011;47394;41.366;-8.738;2022-09-27T13:26:47;21.20;;;3.97;;
61525;SDS011;47394;41.366;-8.738;2022-09-27T13:31:08;25.08;;;4.25;;
61525;SDS011;47394;41.366;-8.738;2022-09-27T13:35:26;31.63;;;6.30;;
61525;SDS011;47394;41.366;-8.738;2022-09-27T13:40:26;34.05;;;7.00;;
61525;SDS011;47394;41.366;-8.738;2022-09-27T13:42:47;23.55;;;4.93;;
61525;SDS011;47394;41.366;-8.738;2022-09-27T13:47:24;39.17;;;5.65;;
61525;SDS011;47394;41.366;-8.738;2022-09-27T13:49:38;23.15;;;4.65;;
61525;SDS011;47394;41.366;-8.738;2022-09-27T13:51:44;20.95;;;4.25;;
61525;SDS011;47394;41.366;-8.738;2022-09-27T13:58:51;36.75;;;5.85;;
61525;SDS011;47394;41.366;-8.738;2022-09-27T14:01:40;28.45;;;4.70;;
61525;SDS011;47394;41.366;-8.738;2022-09-27T14:03:51;33.58;;;6.00;;
61525;SDS011;47394;41.366;-8.738;2022-09-27T14:06:02;33.67;;;5.72;;
61525;SDS011;47394;41.366;-8.738;2022-09-27T14:08:05;29.65;;;5.65;;
61525;SDS011;47394;41.366;-8.738;2022-09-27T14:10:18;28.95;;;4.90;;
61525;SDS011;47394;41.366;-8.738;2022-09-27T14:12:40;37.22;;;5.88;;
61525;SDS011;47394;41.366;-8.738;2022-09-27T14:14:45;45.60;;;8.63;;
61525;SDS011;47394;41.366;-8.738;2022-09-27T14:16:49;32.97;;;6.22;;
61525;SDS011;47394;41.366;-8.738;2022-09-27T14:18:52;30.55;;;7.68;;
61525;SDS011;47394;41.366;-8.738;2022-09-27T14:25:51;23.10;;;6.18;;
61525;SDS011;47394;41.366;-8.738;2022-09-27T14:27:55;30.50;;;6.80;;
61525;SDS011;47394;41.366;-8.738;2022-09-27T14:30:18;37.47;;;8.07;;
61525;SDS011;47394;41.366;-8.738;2022-09-27T14:32:27;29.42;;;7.47;;
61525;SDS011;47394;41.366;-8.738;2022-09-27T14:34:35;32.85;;;6.13;;
61525;SDS011;47394;41.366;-8.738;2022-09-27T14:36:36;32.15;;;6.07;;
61525;SDS011;47394;41.366;-8.738;2022-09-27T14:39:00;29.15;;;5.80;;
61525;SDS011;47394;41.366;-8.738;2022-09-27T14:41:08;39.97;;;11.02;;
61525;SDS011;47394;41.366;-8.738;2022-09-27T14:43:12;36.90;;;7.03;;
61525;SDS011;47394;41.366;-8.738;2022-09-27T14:47:50;38.60;;;6.13;;
61525;SDS011;47394;41.366;-8.738;2022-09-27T14:49:55;30.75;;;4.55;;
61525;SDS011;47394;41.366;-8.738;2022-09-27T14:51:59;40.25;;;7.72;;
61525;SDS011;47394;41.366;-8.738;2022-09-27T14:54:00;37.35;;;4.22;;
61525;SDS011;47394;41.366;-8.738;2022-09-27T14:56:04;35.22;;;6.03;;
61525;SDS011;47394;41.366;-8.738;2022-09-27T14:58:10;28.23;;;4.28;;
61525;SDS011;47394;41.366;-8.738;2022-09-27T15:00:15;28.17;;;5.43;;
61525;SDS011;47394;41.366;-8.738;2022-09-27T15:02:17;23.90;;;4.65;;
61525;SDS011;47394;41.366;-8.738;2022-09-27T15:04:21;46.78;;;6.43;;
61525;SDS011;47394;41.366;-8.738;2022-09-27T15:06:22;60.50;;;8.32;;
61525;SDS011;47394;41.366;-8.738;2022-09-27T15:08:25;41.30;;;5.60;;
61525;SDS011;47394;41.366;-8.738;2022-09-27T15:10:34;26.52;;;3.92;;
61525;SDS011;47394;41.366;-8.738;2022-09-27T15:12:36;19.42;;;3.25;;
61525;SDS011;47394;41.366;-8.738;2022-09-27T15:14:37;17.73;;;3.63;;
61525;SDS011;47394;41.366;-8.738;2022-09-27T15:16:41;23.92;;;3.67;;
61525;SDS011;47394;41.366;-8.738;2022-09-27T15:18:46;20.95;;;3.95;;
61525;SDS011;47394;41.366;-8.738;2022-09-27T15:20:51;21.45;;;3.90;;
61525;SDS011;47394;41.366;-8.738;2022-09-27T15:22:53;25.90;;;4.47;;
61525;SDS011;47394;41.366;-8.738;2022-09-27T15:25:02;25.50;;;4.43;;
61525;SDS011;47394;41.366;-8.738;2022-09-27T15:27:19;19.85;;;4.32;;
61525;SDS011;47394;41.366;-8.738;2022-09-27T15:29:23;34.83;;;5.85;;
61525;SDS011;47394;41.366;-8.738;2022-09-27T15:31:35;21.73;;;3.80;;
61525;SDS011;47394;41.366;-8.738;2022-09-27T15:33:36;28.60;;;5.00;;
61525;SDS011;47394;41.366;-8.738;2022-09-27T15:35:37;20.75;;;4.10;;
61525;SDS011;47394;41.366;-8.738;2022-09-27T15:37:37;21.50;;;3.65;;
61525;SDS011;47394;41.366;-8.738;2022-09-27T15:39:39;23.70;;;3.78;;
61525;SDS011;47394;41.366;-8.738;2022-09-27T15:42:00;24.90;;;5.03;;